Terminal Aerodrome Forecast
Issued by NWS

Home | Current Version | Previous Version | Text Only | Print | Product List | Glossary On
Versions: 1 2 3 4 5 6 7 8 9 10 11 12 13 14 15 16 17 18 19 20 21 22 23 24 25 26 27 28 29 30 31
000
FTUS43 KDVN 031100
TAFBRL
TAF
KBRL 031123Z 0312/0412 17010KT 3SM -FZRA BR OVC005
     FM031400 19015G22KT 4SM BR OVC008
     FM031700 22012KT 5SM BR OVC022
     FM032200 28014G22KT P6SM OVC022
     FM040000 31018G26KT P6SM SCT012 BKN025
     FM040500 32015G23KT P6SM SCT025 SCT100=

USA.gov is the U.S. government's official web portal to all federal, state and local government web resources and services.